Time;durP1;ratioP1;P1;durP2;ratioP2;P2;SDS_P1;SDS_P2;PMS_P1;PMS_P2;Temp;Humidity;BMP_temperature;BMP_pressure;BME280_temperature;BME280_humidity;BME280_pressure;Samples;Min_cycle;Max_cycle;Signal;HPM_P1;HPM_P2
2023/01/13 00:01:43;;;;;;;4.17;2.63;;;;;;;17.13;63.93;96535.47;10325672;28;20038;-25
2023/01/13 00:06:44;;;;;;;4.10;2.77;;;;;;;17.15;64.18;96506.81;10326399;28;20023;-25
2023/01/13 00:11:44;;;;;;;5.65;2.90;;;;;;;17.12;64.32;96513.56;10333303;28;20069;-25
2023/01/13 00:16:45;;;;;;;6.07;3.05;;;;;;;17.08;64.42;96499.22;10333927;28;20118;-25
2023/01/13 00:21:45;;;;;;;4.40;2.73;;;;;;;17.09;64.24;96493.34;10334835;28;20038;-25
2023/01/13 00:26:45;;;;;;;4.93;2.87;;;;;;;17.07;64.14;96503.44;10333081;28;20050;-25
2023/01/13 00:31:48;;;;;;;5.80;2.58;;;;;;;17.05;64.25;96496.69;10333308;28;20042;-25
2023/01/13 00:36:48;;;;;;;5.15;2.30;;;;;;;17.07;64.33;96487.44;10333749;28;20039;-25
2023/01/13 00:47:07;;;;;;;4.22;2.63;;;;;;;17.04;64.41;96497.53;10332146;28;20445;-25
2023/01/13 00:52:08;;;;;;;4.57;3.17;;;;;;;17.04;64.35;96479.81;10333404;28;20121;-26
2023/01/13 00:57:10;;;;;;;6.60;2.80;;;;;;;17.04;64.24;96457.06;10332062;28;20046;-25
2023/01/13 01:02:11;;;;;;;5.65;2.55;;;;;;;17.05;64.16;96473.91;10331631;28;20038;-25
2023/01/13 01:07:11;;;;;;;7.30;2.80;;;;;;;17.05;64.73;96478.97;10333017;28;20053;-25
2023/01/13 01:12:13;;;;;;;6.83;2.53;;;;;;;17.09;64.17;96457.91;10332032;28;20302;-25
2023/01/13 01:17:13;;;;;;;4.63;2.40;;;;;;;17.10;64.20;96467.19;10331339;28;20044;-25
2023/01/13 01:22:13;;;;;;;4.97;2.57;;;;;;;17.10;64.27;96454.53;10331105;28;20034;-27
2023/01/13 01:27:14;;;;;;;5.17;2.73;;;;;;;17.09;63.91;96468.03;10331553;28;20753;-25
2023/01/13 01:32:14;;;;;;;5.57;2.20;;;;;;;17.07;64.28;96462.13;10330545;28;20108;-25
2023/01/13 01:37:14;;;;;;;5.73;2.83;;;;;;;17.04;64.52;96457.06;10325350;28;20038;-25
2023/01/13 01:47:34;;;;;;;3.28;2.15;;;;;;;17.04;64.16;96442.75;10324484;28;20038;-25
2023/01/13 01:52:41;;;;;;;4.13;2.53;;;;;;;17.02;64.18;96448.63;10331166;28;20109;-25
2023/01/13 01:57:46;;;;;;;;;;;;;;;17.04;64.10;96442.75;10330996;28;20305;-25
2023/01/13 02:02:49;;;;;;;3.85;1.83;;;;;;;17.02;64.26;96431.78;10329534;28;19922;-25
2023/01/13 02:07:52;;;;;;;4.18;2.13;;;;;;;17.02;64.53;96446.97;10329469;28;20030;-25
2023/01/13 02:12:55;;;;;;;6.53;2.13;;;;;;;17.01;64.45;96452.00;10330764;28;20042;-25
2023/01/13 02:18:08;;;;;;;3.10;2.45;;;;;;;17.01;64.29;96434.31;10318139;28;20035;-25
2023/01/13 02:34:42;;;;;;;3.28;1.80;;;;;;;17.04;64.30;96424.19;10322309;28;20026;-25
2023/01/13 02:39:47;;;;;;;3.55;2.15;;;;;;;17.02;64.53;96426.72;10328892;28;20077;-25
2023/01/13 02:44:53;;;;;;;4.63;2.53;;;;;;;17.00;64.52;96415.75;10324824;28;20046;-25
2023/01/13 02:50:19;;;;;;;5.05;2.42;;;;;;;17.03;64.61;96409.84;10329050;28;20069;-25
2023/01/13 02:55:25;;;;;;;3.90;1.70;;;;;;;17.00;64.29;96435.16;10320287;28;20045;-25
2023/01/13 03:00:27;;;;;;;3.03;2.00;;;;;;;17.01;64.25;96416.59;10327063;28;20041;-25
2023/01/13 03:05:31;;;;;;;2.17;1.88;;;;;;;17.00;64.45;96414.91;10327690;28;20044;-25
2023/01/13 03:10:47;;;;;;;2.45;1.77;;;;;;;17.00;64.37;96404.81;10328619;28;20085;-25
2023/01/13 03:16:18;;;;;;;2.93;1.97;;;;;;;16.96;64.54;96409.00;10331891;28;20042;-25
2023/01/13 03:21:23;;;;;;;4.97;1.80;;;;;;;17.00;64.45;96414.91;10330274;28;20509;-25
2023/01/13 03:26:35;;;;;;;4.78;1.85;;;;;;;17.00;64.47;96399.75;10330681;28;20034;-24
2023/01/13 03:31:45;;;;;;;2.60;1.80;;;;;;;17.01;64.60;96401.44;10332479;28;20037;-25
2023/01/13 03:36:49;;;;;;;3.90;1.98;;;;;;;17.07;64.25;96411.56;10334321;28;20081;-25
2023/01/13 03:41:58;;;;;;;3.15;1.63;;;;;;;17.08;64.32;96415.78;10332083;28;20046;-25
2023/01/13 03:47:17;;;;;;;3.00;1.80;;;;;;;17.06;64.29;96409.88;10331699;28;20467;-24
2023/01/13 03:52:32;;;;;;;3.28;1.75;;;;;;;17.01;64.62;96406.50;10331700;28;20041;-24
2023/01/13 03:57:37;;;;;;;2.47;1.70;;;;;;;17.00;64.63;96389.63;10325857;28;20406;-25
2023/01/13 04:02:53;;;;;;;2.17;1.50;;;;;;;16.95;64.14;96384.56;10331758;28;20078;-25
2023/01/13 04:08:12;;;;;;;4.32;1.88;;;;;;;16.99;64.47;96377.84;10330876;28;20042;-25
2023/01/13 04:13:18;;;;;;;2.47;1.60;;;;;;;16.99;64.21;96377.84;10331616;28;20120;-25
2023/01/13 04:18:29;;;;;;;3.50;2.22;;;;;;;16.98;64.60;96371.09;10332042;28;20042;-25
2023/01/13 04:23:30;;;;;;;3.13;1.67;;;;;;;16.98;64.23;96356.75;10326757;28;20045;-25
2023/01/13 04:28:30;;;;;;;2.95;1.60;;;;;;;16.97;64.57;96359.25;10323822;28;20027;-27
2023/01/13 04:33:30;;;;;;;4.75;1.80;;;;;;;16.97;64.54;96366.84;10325966;28;20038;-25
2023/01/13 04:38:31;;;;;;;3.20;2.07;;;;;;;16.95;64.47;96361.81;10325049;28;20512;-25
2023/01/13 04:43:31;;;;;;;4.63;1.77;;;;;;;16.99;64.27;96360.13;10324630;28;20452;-27
2023/01/13 04:48:31;;;;;;;2.40;1.43;;;;;;;17.08;63.73;96367.72;10325127;28;20027;-25
2023/01/13 04:53:32;;;;;;;3.43;2.47;;;;;;;17.11;63.27;96372.75;10326302;28;20078;-25
2023/01/13 04:58:32;;;;;;;3.27;1.80;;;;;;;17.09;63.83;96372.75;10327036;28;20470;-25
2023/01/13 05:03:32;;;;;;;3.40;1.70;;;;;;;17.09;63.81;96364.34;10330915;28;20401;-25
2023/01/13 05:08:33;;;;;;;3.13;1.80;;;;;;;17.09;63.71;96377.00;10325636;28;20038;-25
2023/01/13 05:18:52;;;;;;;4.25;1.27;;;;;;;17.13;63.68;96366.00;10331706;28;20038;-25
2023/01/13 05:29:11;;;;;;;2.33;1.40;;;;;;;17.13;63.31;96351.69;10327927;28;20101;-25
2023/01/13 05:34:11;;;;;;;3.70;2.00;;;;;;;17.16;63.21;96354.22;10331234;28;20044;-25
2023/01/13 05:39:12;;;;;;;3.63;1.65;;;;;;;17.17;63.19;96347.47;10322581;28;20034;-27
2023/01/13 05:44:12;;;;;;;2.57;1.57;;;;;;;17.17;63.48;96344.94;10329042;28;20038;-27
2023/01/13 05:49:13;;;;;;;3.40;2.33;;;;;;;17.15;63.55;96344.09;10324553;28;20277;-27
2023/01/13 05:54:13;;;;;;;3.87;1.50;;;;;;;17.16;63.42;96345.78;10330408;28;20041;-27
2023/01/13 05:59:13;;;;;;;3.55;1.67;;;;;;;17.15;63.58;96347.47;10329153;28;20128;-27
2023/01/13 06:04:14;;;;;;;3.27;1.50;;;;;;;17.18;63.67;96344.09;10330953;28;20043;-27
2023/01/13 06:09:14;;;;;;;1.77;1.23;;;;;;;17.16;63.61;96340.72;10324830;28;20126;-27
2023/01/13 06:14:15;;;;;;;2.65;1.50;;;;;;;17.12;63.65;96324.72;10327990;28;20030;-27
2023/01/13 06:19:15;;;;;;;4.80;1.37;;;;;;;17.11;63.72;96343.28;10329705;28;20048;-27
2023/01/13 06:24:15;;;;;;;5.07;2.00;;;;;;;17.12;63.80;96339.03;10325160;28;20281;-27
2023/01/13 06:29:16;;;;;;;2.60;1.70;;;;;;;17.11;63.69;96319.66;10324647;28;20297;-27
2023/01/13 06:34:17;;;;;;;1.70;1.30;;;;;;;17.09;63.66;96308.69;10320559;28;20038;-27
2023/01/13 06:39:20;;;;;;;5.88;1.70;;;;;;;17.05;63.60;96322.19;10321630;28;20039;-27
2023/01/13 06:44:22;;;;;;;3.47;1.67;;;;;;;17.03;63.94;96327.25;10325819;28;20045;-27
2023/01/13 06:49:23;;;;;;;2.50;1.42;;;;;;;17.01;64.20;96325.56;10323535;28;20478;-26
2023/01/13 06:54:23;;;;;;;3.22;1.83;;;;;;;16.98;63.78;96312.94;10327019;28;20038;-26
2023/01/13 06:59:24;;;;;;;1.90;1.30;;;;;;;17.05;63.97;96328.09;10323459;28;20105;-26
2023/01/13 07:04:25;;;;;;;2.35;1.70;;;;;;;17.01;64.59;96323.03;10327902;28;20034;-27
2023/01/13 07:09:25;;;;;;;2.67;1.77;;;;;;;17.04;64.45;96321.34;10326203;28;20042;-27
2023/01/13 07:19:44;;;;;;;9.50;1.45;;;;;;;17.09;64.52;96328.94;10326209;28;20311;-27
2023/01/13 07:24:45;;;;;;;3.20;1.17;;;;;;;17.02;64.13;96335.69;10323246;28;20034;-27
2023/01/13 07:29:45;;;;;;;7.50;1.50;;;;;;;17.04;63.10;96323.03;10325673;28;20034;-27
2023/01/13 07:34:46;;;;;;;3.33;1.80;;;;;;;17.05;63.99;96342.41;10323902;28;20037;-27
2023/01/13 07:39:46;;;;;;;4.73;1.80;;;;;;;17.03;64.22;96361.81;10325167;28;20030;-27
2023/01/13 07:44:46;;;;;;;6.87;1.73;;;;;;;17.02;63.95;96362.66;10322039;28;20352;-27
2023/01/13 07:49:47;;;;;;;10.67;1.60;;;;;;;17.00;64.36;96357.59;10327740;28;20301;-27
2023/01/13 07:54:48;;;;;;;2.42;1.33;;;;;;;16.94;64.69;96349.16;10321268;28;20046;-27
2023/01/13 07:59:48;;;;;;;5.63;1.90;;;;;;;16.95;64.59;96376.13;10325076;28;20038;-27
2023/01/13 08:04:49;;;;;;;8.40;1.90;;;;;;;16.96;64.26;96378.66;10326590;28;20039;-27
2023/01/13 08:09:49;;;;;;;6.93;2.47;;;;;;;16.95;64.78;96384.56;10325272;28;20034;-27
2023/01/13 08:14:50;;;;;;;6.95;1.90;;;;;;;16.95;64.53;96403.94;10325569;28;20099;-27
2023/01/13 08:19:50;;;;;;;14.30;2.28;;;;;;;17.03;65.75;96395.53;10326244;28;20045;-27
2023/01/13 08:24:51;;;;;;;5.03;1.97;;;;;;;17.07;65.25;96409.84;10325134;28;20557;-27
2023/01/13 08:29:51;;;;;;;9.47;2.00;;;;;;;17.11;64.69;96413.22;10325526;28;20034;-27
2023/01/13 08:34:51;;;;;;;13.00;2.40;;;;;;;17.15;63.91;96414.94;10333851;28;20034;-27
2023/01/13 08:39:52;;;;;;;3.63;2.03;;;;;;;17.15;63.90;96432.63;10330606;28;20045;-27
2023/01/13 08:44:53;;;;;;;6.13;1.87;;;;;;;17.19;63.42;96439.38;10322438;28;20058;-27
2023/01/13 08:49:54;;;;;;;5.97;1.63;;;;;;;17.14;63.90;96436.84;10328596;28;20709;-27
2023/01/13 08:54:54;;;;;;;4.85;2.08;;;;;;;17.16;63.81;96437.69;10331914;28;20034;-27
2023/01/13 08:59:54;;;;;;;5.73;1.53;;;;;;;17.17;63.44;96452.00;10331665;28;20045;-27
2023/01/13 09:04:59;;;;;;;4.73;2.13;;;;;;;17.19;63.96;96457.06;10332151;28;20297;-27
2023/01/13 09:10:00;;;;;;;9.88;2.25;;;;;;;17.18;64.54;96466.38;10332203;28;20285;-27
2023/01/13 09:15:02;;;;;;;8.73;3.35;;;;;;;17.16;63.67;96462.97;10330589;28;20050;-27
2023/01/13 09:20:03;;;;;;;10.50;1.83;;;;;;;17.18;63.83;96475.63;10332032;28;20406;-27
2023/01/13 09:25:03;;;;;;;8.27;1.70;;;;;;;17.12;62.83;96473.94;10331011;28;20552;-27
2023/01/13 09:30:04;;;;;;;8.27;2.15;;;;;;;17.12;61.97;96456.25;10330523;28;20169;-27
2023/01/13 09:35:06;;;;;;;6.03;1.40;;;;;;;17.15;60.49;96476.47;10331931;28;20038;-27
2023/01/13 09:40:16;;;;;;;9.63;2.10;;;;;;;17.15;62.21;96488.28;10330178;28;20033;-27
2023/01/13 09:45:27;;;;;;;5.72;1.50;;;;;;;17.13;61.54;96484.88;10328626;28;20069;-27
2023/01/13 09:50:36;;;;;;;3.63;1.75;;;;;;;17.06;59.26;96490.81;10329466;28;20073;-27
2023/01/13 09:55:37;;;;;;;7.75;2.58;;;;;;;17.10;59.62;96495.00;10330054;28;20145;-27
2023/01/13 10:01:22;;;;;;;6.53;2.27;;;;;;;17.05;60.93;96504.25;10329291;28;20042;-27
2023/01/13 10:06:37;;;;;;;6.50;2.60;;;;;;;17.04;61.74;96497.53;10319988;28;20368;-27
2023/01/13 10:17:32;;;;;;;7.53;1.95;;;;;;;17.07;62.56;96512.72;10329033;28;20042;-27
2023/01/13 10:22:51;;;;;;;6.57;2.25;;;;;;;17.04;61.30;96478.16;10329881;28;20030;-27
2023/01/13 10:27:54;;;;;;;9.63;2.15;;;;;;;17.20;61.22;96512.75;10322795;28;20113;-27
2023/01/13 10:32:57;;;;;;;9.15;2.40;;;;;;;17.25;61.88;96503.47;10328285;28;20034;-27
2023/01/13 10:38:00;;;;;;;6.40;1.85;;;;;;;17.28;62.25;96500.94;10328530;28;20089;-27
2023/01/13 10:43:05;;;;;;;5.03;1.42;;;;;;;17.19;62.25;96482.38;10329629;28;20077;-27
2023/01/13 10:48:12;;;;;;;5.25;1.60;;;;;;;17.31;62.51;96513.59;10328017;28;20034;-27
2023/01/13 10:53:21;;;;;;;5.07;1.67;;;;;;;17.33;62.35;96532.16;10324361;28;20410;-27
2023/01/13 10:58:24;;;;;;;4.18;1.70;;;;;;;17.34;62.21;96533.00;10327542;28;20156;-27
2023/01/13 11:03:26;;;;;;;2.97;1.38;;;;;;;17.34;62.35;96533.00;10328807;28;20065;-27
2023/01/13 11:08:41;;;;;;;6.43;1.70;;;;;;;17.34;62.41;96533.00;10327751;28;20026;-27
2023/01/13 11:14:31;;;;;;;4.10;1.30;;;;;;;17.34;62.67;96533.81;10327240;28;20426;-27
2023/01/13 11:19:12;;;;;;;4.32;1.90;;;;;;;17.31;62.51;96516.13;10322894;28;20031;-27
2023/01/13 11:24:40;;;;;;;4.93;1.95;;;;;;;17.35;63.12;96522.91;10326734;28;20463;-27
2023/01/13 11:30:01;;;;;;;2.92;1.20;;;;;;;17.33;62.80;96524.56;10320211;28;20113;-27
2023/01/13 11:35:14;;;;;;;3.63;1.30;;;;;;;17.33;62.92;96528.78;10327433;28;20100;-27
2023/01/13 11:40:39;;;;;;;2.03;1.13;;;;;;;17.32;62.76;96533.00;10326078;28;20030;-27
2023/01/13 11:45:44;;;;;;;4.97;1.55;;;;;;;17.31;62.69;96538.91;10318699;28;20506;-27
2023/01/13 11:50:50;;;;;;;2.67;1.30;;;;;;;17.33;62.77;96546.50;10326893;28;20116;-27
2023/01/13 11:55:53;;;;;;;4.45;1.33;;;;;;;17.33;62.94;96562.50;10326108;28;20077;-27
2023/01/13 12:01:02;;;;;;;2.30;1.42;;;;;;;17.34;63.15;96558.31;10325350;28;20034;-27
2023/01/13 12:06:30;;;;;;;2.70;1.40;;;;;;;17.34;63.17;96565.91;10326548;28;20029;-26
2023/01/13 12:17:42;;;;;;;2.83;1.45;;;;;;;17.34;63.33;96578.56;10323352;28;20097;-27
2023/01/13 12:22:46;;;;;;;6.03;1.48;;;;;;;17.35;63.62;96585.28;10318528;28;20034;-27
2023/01/13 12:27:50;;;;;;;4.45;2.40;;;;;;;17.34;63.77;96571.78;10322846;28;20040;-26
2023/01/13 12:33:05;;;;;;;9.63;4.28;;;;;;;17.38;63.20;96554.97;10324240;28;20036;-27
2023/01/13 12:38:26;;;;;;;11.38;5.40;;;;;;;17.29;63.62;96554.91;10324654;28;20022;-27
2023/01/13 12:48:54;;;;;;;8.65;5.15;;;;;;;17.31;63.56;96566.72;10318106;28;20065;-27
2023/01/13 12:53:55;;;;;;;12.90;6.45;;;;;;;17.30;63.96;96567.56;10321786;28;20034;-27
2023/01/13 12:59:31;;;;;;;12.77;5.97;;;;;;;17.32;63.52;96580.25;10312413;28;20043;-27
2023/01/13 13:04:50;;;;;;;13.38;6.47;;;;;;;17.32;63.64;96560.00;10319583;28;20510;-27
2023/01/13 13:10:26;;;;;;;17.83;7.70;;;;;;;17.34;63.91;96573.50;10320797;28;20026;-27
2023/01/13 13:15:29;;;;;;;15.85;6.88;;;;;;;17.31;64.30;96573.50;10315753;28;20046;-27
2023/01/13 13:20:55;;;;;;;15.95;6.93;;;;;;;17.31;63.77;96583.63;10331636;28;20410;-27
2023/01/13 13:26:05;;;;;;;13.77;4.60;;;;;;;17.30;61.84;96592.88;10325148;28;20037;-27
2023/01/13 13:31:20;;;;;;;9.63;4.85;;;;;;;17.27;61.38;96597.09;10328604;28;20049;-27
2023/01/13 13:37:00;;;;;;;8.18;3.80;;;;;;;17.23;59.44;96591.16;10329831;28;20133;-27
2023/01/13 13:47:38;;;;;;;6.50;3.25;;;;;;;17.21;59.30;96653.56;10329718;28;20030;-27
2023/01/13 13:52:42;;;;;;;7.70;3.53;;;;;;;17.20;58.72;96651.88;10331485;28;20037;-27
2023/01/13 13:57:46;;;;;;;4.35;2.45;;;;;;;17.18;57.79;96663.69;10325538;28;20038;-26
2023/01/13 14:02:50;;;;;;;8.68;4.05;;;;;;;17.18;59.46;96658.63;10329159;28;20065;-27
2023/01/13 14:08:15;;;;;;;7.75;3.53;;;;;;;17.18;58.00;96689.00;10329188;28;20085;-27
2023/01/13 14:13:30;;;;;;;11.43;4.57;;;;;;;17.15;59.36;96683.06;10329699;28;20030;-27
2023/01/13 14:18:44;;;;;;;7.82;3.83;;;;;;;17.16;58.29;96694.88;10330756;28;20033;-27
2023/01/13 14:24:10;;;;;;;19.17;7.63;;;;;;;17.08;64.64;96706.63;10326723;28;20043;-27
2023/01/13 14:29:17;;;;;;;21.50;7.43;;;;;;;17.07;64.97;96715.06;10322722;28;20030;-27
2023/01/13 14:34:20;;;;;;;12.27;4.65;;;;;;;17.10;61.15;96694.84;10329682;28;20068;-28
2023/01/13 14:39:32;;;;;;;9.82;5.07;;;;;;;17.10;59.01;96710.00;10328753;28;20133;-27
2023/01/13 14:44:34;;;;;;;14.43;5.85;;;;;;;17.11;60.84;96724.34;10328213;28;20030;-27
2023/01/13 14:49:48;;;;;;;18.73;7.03;;;;;;;17.14;61.25;96714.25;10328726;28;20030;-27
2023/01/13 14:54:51;;;;;;;12.85;5.10;;;;;;;17.18;60.50;96731.13;10320404;28;20034;-27
2023/01/13 15:00:10;;;;;;;14.48;5.53;;;;;;;17.12;61.94;96726.91;10327438;28;20050;-27
2023/01/13 15:05:22;;;;;;;15.73;5.65;;;;;;;17.13;60.68;96741.22;10328599;28;20537;-26
2023/01/13 15:10:27;;;;;;;15.18;4.97;;;;;;;17.13;60.32;96746.28;10327207;28;20169;-27
2023/01/13 15:15:33;;;;;;;15.50;4.90;;;;;;;17.17;60.90;96757.28;10326582;28;20096;-27
2023/01/13 15:20:33;;;;;;;11.30;4.18;;;;;;;17.16;59.77;96763.16;10327574;28;20034;-27
2023/01/13 15:25:37;;;;;;;15.17;4.87;;;;;;;17.15;60.23;96757.25;10325788;28;20035;-27
2023/01/13 15:30:37;;;;;;;12.52;4.28;;;;;;;17.12;60.43;96752.19;10325793;28;20030;-26
2023/01/13 15:35:41;;;;;;;8.67;4.13;;;;;;;17.13;60.57;96756.41;10325244;28;20034;-27
2023/01/13 15:40:42;;;;;;;12.23;4.28;;;;;;;17.11;62.61;96787.59;10324109;28;20034;-27
2023/01/13 15:51:02;;;;;;;10.32;3.72;;;;;;;17.08;61.31;96800.22;10325832;28;20180;-27
2023/01/13 15:56:07;;;;;;;9.25;3.58;;;;;;;17.07;60.35;96796.84;10326352;28;20096;-28
2023/01/13 16:01:10;;;;;;;12.85;4.72;;;;;;;17.12;61.27;96815.44;10323924;28;20038;-26
2023/01/13 16:06:17;;;;;;;10.43;4.00;;;;;;;17.10;61.16;96817.09;10326242;28;20026;-27
2023/01/13 16:11:17;;;;;;;9.68;3.92;;;;;;;17.10;60.55;96822.16;10325303;28;20042;-27
2023/01/13 16:16:21;;;;;;;17.97;5.27;;;;;;;17.07;61.60;96819.59;10324798;28;20044;-26
2023/01/13 16:21:22;;;;;;;9.70;4.80;;;;;;;17.08;60.62;96813.69;10322263;28;20085;-27
2023/01/13 16:26:31;;;;;;;8.55;3.15;;;;;;;17.08;60.67;96802.75;10320653;28;20026;-27
2023/01/13 16:31:33;;;;;;;7.30;2.97;;;;;;;17.06;59.16;96819.59;10320451;28;20034;-27
2023/01/13 16:36:35;;;;;;;8.02;2.95;;;;;;;17.07;60.63;96816.25;10321087;28;20485;-27
2023/01/13 16:41:35;;;;;;;7.18;3.70;;;;;;;17.06;60.72;96838.16;10321742;28;20234;-27
2023/01/13 16:46:35;;;;;;;8.00;3.47;;;;;;;17.07;57.96;96846.59;10320622;28;20037;-27
2023/01/13 16:51:36;;;;;;;5.57;2.53;;;;;;;17.11;60.77;96848.28;10325519;28;20046;-27
2023/01/13 16:56:37;;;;;;;9.52;3.22;;;;;;;17.06;62.97;96840.66;10332454;28;20034;-27
2023/01/13 17:01:39;;;;;;;4.75;3.03;;;;;;;17.07;60.81;96841.53;10331163;28;20035;-27
2023/01/13 17:07:02;;;;;;;5.82;2.50;;;;;;;17.10;59.73;96839.00;10331033;28;20038;-27
2023/01/13 17:12:03;;;;;;;6.47;2.97;;;;;;;17.09;59.58;96855.03;10327140;28;20035;-27
2023/01/13 17:17:03;;;;;;;6.45;2.33;;;;;;;17.05;59.09;96881.13;10330725;28;20034;-27
2023/01/13 17:22:04;;;;;;;9.05;2.40;;;;;;;17.06;57.87;96887.91;10331220;28;20116;-27
2023/01/13 17:27:04;;;;;;;13.80;3.17;;;;;;;17.10;59.73;96897.19;10332066;28;20425;-27
2023/01/13 17:32:05;;;;;;;3.97;2.43;;;;;;;17.09;59.46;96925.84;10330821;28;20456;-27
2023/01/13 17:37:05;;;;;;;4.88;2.40;;;;;;;17.09;57.21;96925.84;10328873;28;20289;-27
2023/01/13 17:42:06;;;;;;;4.32;2.47;;;;;;;17.07;58.95;96935.13;10331673;28;20522;-27
2023/01/13 17:47:06;;;;;;;5.30;2.10;;;;;;;17.07;59.14;96930.91;10330459;28;20056;-27
2023/01/13 17:52:06;;;;;;;6.10;2.13;;;;;;;17.10;59.19;96940.19;10329691;28;20109;-27
2023/01/13 17:57:07;;;;;;;4.63;2.40;;;;;;;17.06;59.71;96943.56;10329518;28;20046;-27
2023/01/13 18:02:10;;;;;;;3.47;2.17;;;;;;;17.12;59.65;96946.09;10329245;28;20293;-27
2023/01/13 18:07:10;;;;;;;3.83;1.80;;;;;;;17.06;59.32;96963.78;10329540;28;20027;-27
2023/01/13 18:12:11;;;;;;;1.90;1.37;;;;;;;17.12;56.87;96961.28;10329749;28;20042;-27
2023/01/13 18:17:11;;;;;;;2.77;1.47;;;;;;;17.12;56.62;96976.47;10322020;28;20513;-27
2023/01/13 18:27:34;;;;;;;8.77;2.03;;;;;;;17.10;57.41;97009.34;10322709;28;20038;-27
2023/01/13 18:32:35;;;;;;;7.18;2.40;;;;;;;17.11;59.41;97020.31;10328215;28;20113;-27
2023/01/13 18:37:39;;;;;;;5.88;2.25;;;;;;;17.06;61.12;97032.09;10324720;28;20093;-26
2023/01/13 18:42:55;;;;;;;5.00;2.20;;;;;;;17.07;58.87;97038.84;10320241;28;20517;-26
2023/01/13 18:47:59;;;;;;;5.25;1.83;;;;;;;17.07;59.48;97038.84;10324270;28;20030;-27
2023/01/13 18:53:00;;;;;;;4.88;1.48;;;;;;;17.09;56.85;97039.69;10328533;28;20122;-27
2023/01/13 18:58:01;;;;;;;5.72;1.85;;;;;;;17.08;59.93;97038.00;10322447;28;20495;-27
2023/01/13 19:03:04;;;;;;;6.03;1.65;;;;;;;17.08;56.89;97031.25;10322330;28;20030;-27
2023/01/13 19:08:04;;;;;;;6.43;2.50;;;;;;;17.10;59.53;97038.84;10320689;28;20065;-27
2023/01/13 19:13:05;;;;;;;5.05;2.28;;;;;;;17.10;61.15;97059.09;10319479;28;20042;-27
2023/01/13 19:18:05;;;;;;;5.28;1.73;;;;;;;17.10;57.78;97074.28;10313677;28;20048;-27
2023/01/13 19:23:06;;;;;;;3.17;1.45;;;;;;;17.11;56.95;97073.44;10318479;28;20023;-27
2023/01/13 19:28:06;;;;;;;4.07;1.70;;;;;;;17.10;58.67;97079.31;10323844;28;20091;-26
2023/01/13 19:33:06;;;;;;;3.20;1.30;;;;;;;17.09;57.14;97080.16;10323887;28;20077;-26
2023/01/13 19:38:07;;;;;;;3.07;1.37;;;;;;;17.10;57.08;97079.31;10320161;28;20042;-27
2023/01/13 19:48:26;;;;;;;2.85;1.70;;;;;;;17.07;57.46;97102.06;10306326;28;20026;-27
2023/01/13 19:53:28;;;;;;;3.80;1.40;;;;;;;17.05;58.21;97106.25;10313923;28;20045;-27
2023/01/13 19:58:28;;;;;;;2.63;1.40;;;;;;;17.07;58.59;97122.31;10299915;28;20030;-27
2023/01/13 20:03:34;;;;;;;2.00;1.43;;;;;;;17.05;58.15;97112.16;10310511;28;20038;-27
2023/01/13 20:08:35;;;;;;;3.20;1.67;;;;;;;17.04;56.94;97114.66;10300198;28;20415;-27
2023/01/13 20:13:36;;;;;;;2.00;1.50;;;;;;;17.07;57.87;97117.25;10312277;28;20503;-27
2023/01/13 20:18:36;;;;;;;5.43;1.77;;;;;;;17.01;59.00;97118.03;10313562;28;20031;-26
2023/01/13 20:23:36;;;;;;;2.70;1.58;;;;;;;17.07;57.70;97122.31;10314411;28;20038;-27
2023/01/13 20:28:38;;;;;;;2.77;1.20;;;;;;;17.03;56.61;97112.97;10314680;28;20181;-27
2023/01/13 20:33:39;;;;;;;3.60;1.60;;;;;;;17.06;55.95;97115.56;10328063;28;20042;-27
2023/01/13 20:38:39;;;;;;;2.20;1.10;;;;;;;17.08;55.50;97121.47;10323850;28;20406;-27
2023/01/13 20:43:39;;;;;;;4.73;1.60;;;;;;;17.08;56.57;97131.59;10329774;28;20034;-27
2023/01/13 20:48:40;;;;;;;3.17;1.23;;;;;;;17.07;55.94;97130.72;10329570;28;20032;-27
2023/01/13 20:53:40;;;;;;;5.80;1.70;;;;;;;17.07;57.80;97128.19;10323243;28;20073;-27
2023/01/13 20:58:40;;;;;;;5.43;1.80;;;;;;;17.05;57.43;97147.56;10323250;28;20038;-27
2023/01/13 21:03:41;;;;;;;4.53;1.60;;;;;;;17.04;58.59;97155.13;10320182;28;20294;-27
2023/01/13 21:08:41;;;;;;;5.37;1.60;;;;;;;17.03;54.41;97154.31;10323627;28;20026;-27
2023/01/13 21:19:06;;;;;;;3.80;1.58;;;;;;;17.04;55.05;97150.06;10314695;28;20045;-27
2023/01/13 21:24:07;;;;;;;6.53;1.80;;;;;;;17.06;59.22;97150.97;10324466;28;20077;-27
2023/01/13 21:29:07;;;;;;;4.60;1.50;;;;;;;17.05;59.09;97146.72;10326444;28;20117;-27
2023/01/13 21:34:09;;;;;;;4.47;1.08;;;;;;;17.03;57.37;97143.31;10327309;28;20096;-26
2023/01/13 21:39:09;;;;;;;5.85;1.30;;;;;;;17.01;58.05;97158.50;10320301;28;20034;-27
2023/01/13 21:49:42;;;;;;;3.17;1.40;;;;;;;16.99;58.91;97161.84;10325691;28;20026;-27
2023/01/13 22:00:03;;;;;;;3.05;1.20;;;;;;;16.99;57.75;97172.78;10323907;28;20157;-27
2023/01/13 22:05:07;;;;;;;3.40;1.50;;;;;;;17.00;57.46;97163.53;10326764;28;20461;-27
2023/01/13 22:10:11;;;;;;;1.45;1.10;;;;;;;16.93;57.65;97151.63;10325523;28;20038;-26
2023/01/13 22:15:14;;;;;;;3.40;1.02;;;;;;;16.96;57.83;97156.72;10322489;28;20034;-27
2023/01/13 22:20:15;;;;;;;3.55;1.33;;;;;;;16.90;58.27;97156.66;10326052;28;20534;-27
2023/01/13 22:25:18;;;;;;;3.03;1.23;;;;;;;16.94;57.89;97163.44;10325774;28;20124;-26
2023/01/13 22:30:20;;;;;;;2.58;1.10;;;;;;;16.98;57.92;97175.31;10322975;28;20038;-28
2023/01/13 22:35:20;;;;;;;4.70;1.27;;;;;;;16.98;58.94;97171.09;10320562;28;20030;-27
2023/01/13 22:40:21;;;;;;;5.50;1.53;;;;;;;17.00;57.54;97178.72;10326395;28;20031;-27
2023/01/13 22:45:21;;;;;;;4.47;1.40;;;;;;;16.99;57.20;97180.38;10322968;28;20301;-27
2023/01/13 22:50:22;;;;;;;3.43;1.73;;;;;;;16.97;56.90;97184.56;10318874;28;20034;-27
2023/01/13 22:55:22;;;;;;;2.63;1.00;;;;;;;16.95;56.57;97180.31;10328210;28;20041;-27
2023/01/13 23:00:23;;;;;;;4.27;1.37;;;;;;;16.97;56.86;97178.66;10327579;28;20293;-27
2023/01/13 23:05:27;;;;;;;3.08;1.10;;;;;;;17.00;56.67;97171.13;10329521;28;20391;-26
2023/01/13 23:10:27;;;;;;;2.63;1.13;;;;;;;16.98;57.48;97160.97;10327876;28;20072;-27
2023/01/13 23:15:28;;;;;;;3.00;1.20;;;;;;;17.00;56.91;97164.38;10327384;28;20123;-27
2023/01/13 23:20:29;;;;;;;1.63;0.70;;;;;;;16.97;57.78;97169.41;10327857;28;20297;-27
2023/01/13 23:25:29;;;;;;;9.45;1.23;;;;;;;16.97;57.18;97168.53;10327018;28;20297;-26
2023/01/13 23:30:30;;;;;;;6.07;1.20;;;;;;;16.95;57.34;97166.00;10326545;28;20034;-27
2023/01/13 23:35:30;;;;;;;3.40;1.10;;;;;;;16.94;57.53;97155.84;10327497;28;20296;-27
2023/01/13 23:40:34;;;;;;;2.72;1.40;;;;;;;16.96;57.41;97142.41;10325952;28;20030;-27
2023/01/13 23:45:34;;;;;;;3.88;1.02;;;;;;;17.00;58.08;97140.78;10325677;28;20030;-27
2023/01/13 23:50:35;;;;;;;2.63;1.10;;;;;;;16.98;58.67;97127.25;10327091;28;20038;-27
2023/01/13 23:55:36;;;;;;;2.90;0.98;;;;;;;17.00;56.79;97133.19;10325949;28;20037;-27
